createdAt,value
2018-04-11T00:01:00.216Z,5.30
2018-04-11T00:04:03.562Z,5.30
2018-04-11T00:07:07.693Z,5.30
2018-04-11T00:10:11.069Z,5.40
2018-04-11T00:13:14.433Z,5.30
2018-04-11T00:16:17.783Z,5.40
2018-04-11T00:19:21.157Z,5.40
2018-04-11T00:22:24.517Z,5.30
2018-04-11T00:25:28.733Z,5.30
2018-04-11T00:28:32.873Z,5.30
2018-04-11T00:31:36.233Z,5.20
2018-04-11T00:34:39.576Z,5.30
2018-04-11T00:37:42.939Z,5.30
2018-04-11T00:40:47.073Z,5.20
2018-04-11T00:43:50.441Z,5.20
2018-04-11T00:46:53.865Z,5.20
2018-04-11T00:49:57.236Z,5.20
2018-04-11T00:53:18.496Z,5.20
2018-04-11T00:56:21.846Z,5.20
2018-04-11T00:59:25.969Z,5.10
2018-04-11T01:02:29.334Z,5.10
2018-04-11T01:05:32.783Z,5.10
2018-04-11T01:08:37.121Z,5.10
2018-04-11T01:11:40.483Z,5.10
2018-04-11T01:14:43.886Z,5.10
2018-04-11T01:17:48.824Z,5.10
2018-04-11T01:20:52.175Z,5.10
2018-04-11T01:23:55.527Z,5.20
2018-04-11T01:26:58.874Z,5.20
2018-04-11T01:30:02.353Z,5.10
2018-04-11T01:33:05.755Z,5.10
2018-04-11T01:36:09.107Z,5.10
2018-04-11T01:39:12.463Z,5.20
2018-04-11T01:42:15.809Z,5.20
2018-04-11T01:45:19.253Z,5.20
2018-04-11T01:48:22.643Z,5.20
2018-04-11T01:51:26.818Z,5.10
2018-04-11T01:54:30.179Z,5.10
2018-04-11T01:57:33.587Z,5.10
2018-04-11T02:00:36.948Z,5.00
2018-04-11T02:03:41.079Z,5.10
2018-04-11T02:06:45.181Z,5.10
2018-04-11T02:09:49.299Z,5.10
2018-04-11T02:12:53.421Z,5.00
2018-04-11T02:15:57.753Z,5.10
2018-04-11T02:19:01.136Z,5.00
2018-04-11T02:22:05.280Z,5.00
2018-04-11T02:25:08.633Z,5.00
2018-04-11T02:28:11.993Z,5.00
2018-04-11T02:31:15.347Z,5.00
2018-04-11T02:34:19.486Z,5.00
2018-04-11T02:37:22.950Z,4.90
2018-04-11T02:40:27.064Z,5.00
2018-04-11T02:43:30.501Z,4.90
2018-04-11T02:46:34.641Z,5.00
2018-04-11T02:49:37.993Z,4.90
2018-04-11T02:52:41.363Z,4.90
2018-04-11T02:55:44.937Z,4.90
2018-04-11T02:58:48.319Z,4.90
2018-04-11T03:01:51.668Z,4.90
2018-04-11T03:04:55.094Z,4.90
2018-04-11T03:07:59.252Z,4.90
2018-04-11T03:11:02.630Z,4.90
2018-04-11T03:14:06.739Z,5.00
2018-04-11T03:17:10.881Z,4.90
2018-04-11T03:20:14.227Z,4.90
2018-04-11T03:23:17.584Z,4.90
2018-04-11T03:26:20.935Z,5.00
2018-04-11T03:29:25.801Z,4.90
2018-04-11T03:32:29.161Z,4.90
2018-04-11T03:35:33.272Z,4.90
2018-04-11T03:38:37.387Z,4.90
2018-04-11T03:41:40.733Z,4.90
2018-04-11T03:44:44.092Z,4.90
2018-04-11T03:47:49.023Z,4.90
2018-04-11T03:50:53.888Z,4.90
2018-04-11T03:53:58.003Z,4.90
2018-04-11T03:57:02.128Z,4.90
2018-04-11T04:00:05.516Z,4.80
2018-04-11T04:03:09.684Z,4.90
2018-04-11T04:06:13.062Z,4.90
2018-04-11T04:09:16.427Z,4.90
2018-04-11T04:12:19.768Z,4.90
2018-04-11T04:15:40.973Z,4.90
2018-04-11T04:19:01.992Z,4.90
2018-04-11T04:22:05.345Z,4.90
2018-04-11T04:25:08.792Z,4.90
2018-04-11T04:28:12.149Z,4.90
2018-04-11T04:31:15.577Z,5.00
2018-04-11T04:34:18.919Z,4.90
2018-04-11T04:37:22.268Z,4.90
2018-04-11T04:40:26.398Z,4.90
2018-04-11T04:43:29.805Z,4.90
2018-04-11T04:46:33.214Z,4.90
2018-04-11T04:49:36.588Z,4.90
2018-04-11T04:52:39.965Z,4.90
2018-04-11T04:55:44.078Z,4.90
2018-04-11T04:58:47.438Z,4.90
2018-04-11T05:01:50.789Z,5.00
2018-04-11T05:04:55.021Z,4.90
2018-04-11T05:07:59.208Z,5.00
2018-04-11T05:11:03.324Z,5.00
2018-04-11T05:14:06.683Z,5.00
2018-04-11T05:17:10.051Z,5.00
2018-04-11T05:20:14.259Z,5.10
2018-04-11T05:23:18.373Z,5.10
2018-04-11T05:26:22.504Z,5.20
2018-04-11T05:29:26.617Z,5.20
2018-04-11T05:32:30.732Z,5.20
2018-04-11T05:35:34.816Z,5.30
2018-04-11T05:38:38.166Z,5.30
2018-04-11T05:41:41.631Z,5.20
2018-04-11T05:44:45.771Z,5.20
2018-04-11T05:47:49.911Z,5.30
2018-04-11T05:50:53.275Z,5.30
2018-04-11T05:53:57.395Z,5.40
2018-04-11T05:57:01.541Z,5.40
2018-04-11T06:00:04.878Z,5.40
2018-04-11T06:03:08.324Z,5.40
2018-04-11T06:06:11.720Z,5.40
2018-04-11T06:09:15.859Z,5.40
2018-04-11T06:12:19.420Z,5.40
2018-04-11T06:15:22.785Z,5.50
2018-04-11T06:18:26.243Z,5.60
2018-04-11T06:21:29.609Z,5.70
2018-04-11T06:24:32.965Z,5.70
2018-04-11T06:27:36.334Z,5.80
2018-04-11T06:30:40.461Z,5.80
2018-04-11T06:33:43.931Z,5.80
2018-04-11T06:36:47.288Z,6.00
2018-04-11T06:39:50.652Z,6.00
2018-04-11T06:42:54.785Z,6.10
2018-04-11T06:45:58.183Z,6.10
2018-04-11T06:49:01.582Z,6.20
2018-04-11T06:52:04.933Z,6.20
2018-04-11T06:55:09.817Z,6.20
2018-04-11T06:58:13.190Z,6.20
2018-04-11T07:01:18.125Z,6.20
2018-04-11T07:04:22.262Z,6.20
2018-04-11T07:07:25.669Z,6.20
2018-04-11T07:10:29.048Z,6.20
2018-04-11T07:13:33.192Z,6.20
2018-04-11T07:16:36.689Z,6.20
2018-04-11T07:19:40.045Z,6.40
2018-04-11T07:22:43.463Z,6.30
2018-04-11T07:25:47.648Z,6.40
2018-04-11T07:28:51.003Z,6.40
2018-04-11T07:31:54.358Z,6.40
2018-04-11T07:34:58.488Z,6.40
2018-04-11T07:38:02.637Z,6.30
2018-04-11T07:41:05.992Z,6.30
2018-04-11T07:44:09.344Z,6.30
2018-04-11T07:47:12.829Z,6.30
2018-04-11T07:50:16.239Z,6.40
2018-04-11T07:53:19.611Z,6.50
2018-04-11T07:56:23.738Z,6.50
2018-04-11T07:59:27.878Z,6.60
2018-04-11T08:02:31.236Z,6.50
2018-04-11T08:05:34.591Z,6.60
2018-04-11T08:08:37.956Z,6.60
2018-04-11T08:11:41.315Z,6.70
2018-04-11T08:14:45.558Z,6.90
2018-04-11T08:17:49.693Z,6.80
2018-04-11T08:20:53.057Z,6.80
2018-04-11T08:23:56.540Z,7.00
2018-04-11T08:26:59.900Z,7.00
2018-04-11T08:30:03.257Z,7.10
2018-04-11T08:33:06.629Z,7.10
2018-04-11T08:36:10.026Z,7.10
2018-04-11T08:39:13.381Z,7.00
2018-04-11T08:42:17.515Z,7.30
2018-04-11T08:45:20.861Z,7.20
2018-04-11T08:48:24.216Z,7.20
2018-04-11T08:51:27.603Z,7.20
2018-04-11T08:54:31.753Z,7.30
2018-04-11T08:57:35.288Z,7.20
2018-04-11T09:00:39.424Z,7.30
2018-04-11T09:03:43.633Z,7.20
2018-04-11T09:06:47.790Z,7.30
2018-04-11T09:09:51.192Z,7.30
2018-04-11T09:12:54.562Z,7.30
2018-04-11T09:15:58.692Z,7.30
2018-04-11T09:19:02.055Z,7.20
2018-04-11T09:22:06.923Z,7.40
2018-04-11T09:25:10.276Z,7.40
2018-04-11T09:28:13.631Z,7.40
2018-04-11T09:31:17.087Z,7.60
2018-04-11T09:34:21.247Z,7.80
2018-04-11T09:37:24.608Z,7.80
2018-04-11T09:40:27.973Z,7.80
2018-04-11T09:43:31.327Z,7.80
2018-04-11T09:46:35.463Z,7.90
2018-04-11T09:49:38.820Z,7.90
2018-04-11T09:52:42.186Z,8.00
2018-04-11T09:55:45.654Z,8.00
2018-04-11T09:58:49.055Z,7.90
2018-04-11T10:01:52.404Z,7.80
2018-04-11T10:04:55.805Z,7.80
2018-04-11T10:07:59.262Z,7.60
2018-04-11T10:11:02.638Z,7.50
2018-04-11T10:14:06.770Z,7.60
2018-04-11T10:17:10.206Z,7.60
2018-04-11T10:20:13.685Z,7.90
2018-04-11T10:23:17.071Z,8.10
2018-04-11T10:26:20.483Z,8.30
2018-04-11T10:29:23.855Z,8.20
2018-04-11T10:32:28.001Z,8.20
2018-04-11T10:35:31.357Z,8.10
2018-04-11T10:38:34.745Z,8.20
2018-04-11T10:41:38.109Z,8.10
2018-04-11T10:44:41.472Z,8.10
2018-04-11T10:47:45.605Z,8.10
2018-04-11T10:50:48.977Z,8.10
2018-04-11T10:53:52.332Z,8.20
2018-04-11T10:56:55.698Z,8.50
2018-04-11T10:59:59.890Z,8.40
2018-04-11T11:03:03.271Z,8.40
2018-04-11T11:06:06.627Z,8.40
2018-04-11T11:09:10.030Z,8.40
2018-04-11T11:12:13.379Z,8.60
2018-04-11T11:15:16.825Z,8.60
2018-04-11T11:18:20.200Z,8.60
2018-04-11T11:21:24.328Z,8.70
2018-04-11T11:24:28.500Z,8.80
2018-04-11T11:27:31.861Z,8.80
2018-04-11T11:30:35.225Z,8.90
2018-04-11T11:33:38.587Z,9.20
2018-04-11T11:36:41.976Z,9.30
2018-04-11T11:39:45.330Z,9.20
2018-04-11T11:42:49.450Z,9.20
2018-04-11T11:45:53.592Z,9.10
2018-04-11T11:48:58.017Z,9.10
2018-04-11T11:52:01.424Z,9.20
2018-04-11T11:55:04.783Z,9.30
2018-04-11T11:58:08.960Z,9.20
2018-04-11T12:01:12.315Z,9.20
2018-04-11T12:04:16.445Z,9.20
2018-04-11T12:07:19.847Z,9.20
2018-04-11T12:10:23.212Z,9.20
2018-04-11T12:13:26.629Z,9.20
2018-04-11T12:16:30.845Z,9.10
2018-04-11T12:19:34.965Z,9.20
2018-04-11T12:22:39.079Z,9.20
2018-04-11T12:25:43.199Z,9.10
2018-04-11T12:28:47.340Z,9.10
2018-04-11T12:31:50.737Z,9.10
2018-04-11T12:34:54.111Z,9.10
2018-04-11T12:37:58.334Z,9.20
2018-04-11T12:41:02.462Z,9.30
2018-04-11T12:44:06.030Z,9.20
2018-04-11T12:47:09.401Z,9.30
2018-04-11T12:50:12.755Z,9.40
2018-04-11T12:53:16.887Z,9.50
2018-04-11T12:56:20.263Z,9.50
2018-04-11T12:59:24.497Z,9.70
2018-04-11T13:02:28.081Z,9.70
2018-04-11T13:05:32.226Z,9.60
2018-04-11T13:08:35.834Z,9.60
2018-04-11T13:11:40.115Z,9.70
2018-04-11T13:14:43.477Z,9.60
2018-04-11T13:17:46.840Z,9.80
2018-04-11T13:20:50.951Z,9.70
2018-04-11T13:23:55.090Z,9.70
2018-04-11T13:26:58.452Z,9.70
2018-04-11T13:30:02.556Z,9.80
2018-04-11T13:33:05.916Z,9.80
2018-04-11T13:36:09.321Z,9.80
2018-04-11T13:39:12.767Z,9.90
2018-04-11T13:42:16.137Z,10.00
2018-04-11T13:45:19.507Z,10.10
2018-04-11T13:48:22.892Z,10.10
2018-04-11T13:51:26.286Z,10.10
2018-04-11T13:54:30.428Z,10.30
2018-04-11T13:57:33.921Z,10.30
2018-04-11T14:00:37.305Z,10.20
2018-04-11T14:03:40.719Z,10.20
2018-04-11T14:06:44.074Z,10.40
2018-04-11T14:09:47.437Z,10.20
2018-04-11T14:12:50.848Z,10.40
2018-04-11T14:15:54.511Z,10.40
2018-04-11T14:18:57.901Z,10.50
2018-04-11T14:22:02.057Z,10.50
2018-04-11T14:25:05.413Z,10.50
2018-04-11T14:28:09.721Z,10.30
2018-04-11T14:31:13.108Z,10.20
2018-04-11T14:34:17.227Z,10.20
2018-04-11T14:37:20.630Z,10.30
2018-04-11T14:40:24.021Z,10.30
2018-04-11T14:43:28.164Z,10.40
2018-04-11T14:46:32.329Z,10.30
2018-04-11T14:49:35.686Z,10.30
2018-04-11T14:52:39.839Z,10.20
2018-04-11T14:55:43.209Z,10.20
2018-04-11T14:58:47.355Z,10.20
2018-04-11T15:01:50.734Z,10.20
2018-04-11T15:04:54.091Z,10.20
2018-04-11T15:07:58.306Z,10.10
2018-04-11T15:11:03.178Z,9.90
2018-04-11T15:14:07.412Z,9.90
2018-04-11T15:17:10.805Z,9.90
2018-04-11T15:20:14.218Z,9.80
2018-04-11T15:23:17.631Z,9.70
2018-04-11T15:26:21.751Z,9.60
2018-04-11T15:29:25.132Z,9.60
2018-04-11T15:32:28.492Z,9.80
2018-04-11T15:35:31.863Z,10.00
2018-04-11T15:38:35.441Z,10.40
2018-04-11T15:41:38.818Z,10.50
2018-04-11T15:44:42.941Z,10.80
2018-04-11T15:47:46.304Z,10.80
2018-04-11T15:50:49.833Z,11.00
2018-04-11T15:53:53.982Z,11.00
2018-04-11T15:56:57.354Z,11.00
2018-04-11T16:00:00.769Z,11.00
2018-04-11T16:03:04.158Z,11.00
2018-04-11T16:06:07.608Z,11.00
2018-04-11T16:09:11.023Z,10.90
2018-04-11T16:12:14.437Z,10.70
2018-04-11T16:15:18.613Z,9.80
2018-04-11T16:18:22.009Z,9.80
2018-04-11T16:21:25.376Z,9.90
2018-04-11T16:24:28.996Z,9.70
2018-04-11T16:27:32.458Z,9.50
2018-04-11T16:30:36.609Z,9.00
2018-04-11T16:33:40.022Z,8.90
2018-04-11T16:36:43.413Z,8.70
2018-04-11T16:39:46.796Z,8.60
2018-04-11T16:42:50.935Z,8.70
2018-04-11T16:45:54.376Z,8.70
2018-04-11T16:48:58.496Z,8.60
2018-04-11T16:52:01.881Z,8.60
2018-04-11T16:55:05.280Z,8.60
2018-04-11T16:58:08.663Z,8.90
2018-04-11T17:01:12.097Z,9.10
2018-04-11T17:04:15.481Z,8.90
2018-04-11T17:07:18.844Z,8.80
2018-04-11T17:10:22.234Z,8.80
2018-04-11T17:13:25.584Z,8.80
2018-04-11T17:16:28.941Z,8.60
2018-04-11T17:19:32.340Z,8.50
2018-04-11T17:22:53.543Z,8.20
2018-04-11T17:26:14.852Z,8.00
2018-04-11T17:29:36.737Z,7.50
2018-04-11T17:32:40.415Z,7.50
2018-04-11T17:35:43.797Z,7.40
2018-04-11T17:38:48.038Z,7.20
2018-04-11T17:41:51.407Z,7.20
2018-04-11T17:44:55.558Z,7.00
2018-04-11T17:47:58.962Z,6.90
2018-04-11T17:51:02.493Z,6.70
2018-04-11T17:54:05.872Z,6.60
2018-04-11T17:57:09.236Z,6.50
2018-04-11T18:00:13.368Z,6.30
2018-04-11T18:03:16.761Z,6.30
2018-04-11T18:06:20.164Z,6.20
2018-04-11T18:09:23.547Z,6.10
2018-04-11T18:12:27.891Z,5.90
2018-04-11T18:15:31.395Z,5.90
2018-04-11T18:18:34.766Z,5.80
2018-04-11T18:21:38.890Z,5.80
2018-04-11T18:24:43.029Z,5.70
2018-04-11T18:27:46.395Z,5.70
2018-04-11T18:30:50.543Z,5.70
2018-04-11T18:33:54.000Z,5.70
2018-04-11T18:36:57.449Z,5.70
2018-04-11T18:40:00.957Z,5.70
2018-04-11T18:43:04.332Z,5.70
2018-04-11T18:46:07.733Z,5.60
2018-04-11T18:49:11.150Z,5.60
2018-04-11T18:52:14.512Z,5.70
2018-04-11T18:55:17.887Z,5.70
2018-04-11T18:58:21.259Z,5.60
2018-04-11T19:01:24.652Z,5.60
2018-04-11T19:04:28.026Z,5.60
2018-04-11T19:07:32.187Z,5.50
2018-04-11T19:10:35.528Z,5.50
2018-04-11T19:13:39.683Z,5.60
2018-04-11T19:16:43.082Z,5.60
2018-04-11T19:19:46.524Z,5.70
2018-04-11T19:22:50.662Z,5.60
2018-04-11T19:25:54.818Z,5.60
2018-04-11T19:28:58.176Z,5.60
2018-04-11T19:32:01.545Z,5.60
2018-04-11T19:35:04.918Z,5.70
2018-04-11T19:38:08.349Z,5.70
2018-04-11T19:41:11.721Z,5.60
2018-04-11T19:44:15.106Z,5.70
2018-04-11T19:47:18.485Z,5.60
2018-04-11T19:50:22.637Z,5.70
2018-04-11T19:53:26.011Z,5.70
2018-04-11T19:56:30.178Z,5.60
2018-04-11T19:59:33.783Z,5.60
2018-04-11T20:02:37.156Z,5.60
2018-04-11T20:05:40.555Z,5.60
2018-04-11T20:08:43.935Z,5.60
2018-04-11T20:11:47.325Z,5.50
2018-04-11T20:14:51.466Z,5.60
2018-04-11T20:17:54.817Z,5.60
2018-04-11T20:20:58.991Z,5.50
2018-04-11T20:24:03.117Z,5.50
2018-04-11T20:27:06.494Z,5.50
2018-04-11T20:30:10.004Z,5.50
2018-04-11T20:33:13.389Z,5.50
2018-04-11T20:36:16.758Z,5.50
2018-04-11T20:39:20.131Z,5.50
2018-04-11T20:42:23.500Z,5.50
2018-04-11T20:45:26.835Z,5.50
2018-04-11T20:48:30.291Z,5.60
2018-04-11T20:51:33.679Z,5.50
2018-04-11T20:54:37.792Z,5.50
2018-04-11T20:57:41.950Z,5.60
2018-04-11T21:00:45.337Z,5.50
2018-04-11T21:03:48.702Z,5.60
2018-04-11T21:06:52.832Z,5.70
2018-04-11T21:09:56.947Z,5.70
2018-04-11T21:13:01.071Z,5.70
2018-04-11T21:16:04.439Z,5.60
2018-04-11T21:19:07.946Z,5.60
2018-04-11T21:22:12.291Z,5.70
2018-04-11T21:25:15.715Z,5.70
2018-04-11T21:28:19.846Z,5.70
2018-04-11T21:31:23.226Z,5.70
2018-04-11T21:34:26.602Z,5.70
2018-04-11T21:37:30.739Z,5.70
2018-04-11T21:40:34.090Z,5.60
2018-04-11T21:43:38.989Z,5.70
2018-04-11T21:46:42.355Z,5.70
2018-04-11T21:49:46.651Z,5.70
2018-04-11T21:52:50.009Z,5.70
2018-04-11T21:55:53.968Z,5.70
2018-04-11T21:58:57.474Z,5.70
2018-04-11T22:02:02.014Z,5.70
2018-04-11T22:05:05.559Z,5.70
2018-04-11T22:08:10.255Z,5.70
2018-04-11T22:11:13.874Z,5.70
2018-04-11T22:14:17.635Z,5.80
2018-04-11T22:17:21.392Z,5.80
2018-04-11T22:20:25.107Z,5.80
2018-04-11T22:23:28.970Z,5.80
2018-04-11T22:26:32.497Z,5.80
2018-04-11T22:29:35.902Z,5.80
2018-04-11T22:32:39.255Z,5.80
2018-04-11T22:35:42.700Z,5.70
2018-04-11T22:38:46.097Z,5.80
2018-04-11T22:41:49.686Z,5.80
2018-04-11T22:44:53.851Z,5.80
2018-04-11T22:47:57.200Z,5.80
2018-04-11T22:51:01.357Z,5.80
2018-04-11T22:54:04.719Z,5.80
2018-04-11T22:57:08.833Z,5.80
2018-04-11T23:00:13.064Z,5.80
2018-04-11T23:03:17.171Z,5.80
2018-04-11T23:06:21.628Z,5.90
2018-04-11T23:09:25.282Z,5.90
2018-04-11T23:12:28.767Z,5.80
2018-04-11T23:15:32.883Z,5.80
2018-04-11T23:18:36.256Z,5.80
2018-04-11T23:21:39.610Z,5.80
2018-04-11T23:24:43.033Z,5.80
2018-04-11T23:27:46.540Z,5.80
2018-04-11T23:30:50.053Z,5.80
2018-04-11T23:33:53.408Z,5.80
2018-04-11T23:36:56.764Z,5.80
2018-04-11T23:40:00.121Z,5.80
2018-04-11T23:43:04.246Z,5.80
2018-04-11T23:46:08.515Z,5.80
2018-04-11T23:49:11.869Z,5.80
2018-04-11T23:52:15.234Z,5.80
2018-04-11T23:55:19.354Z,5.70
2018-04-11T23:58:22.716Z,5.70
